Terminal Aerodrome Forecast
Issued by NWS

Home | Current Version | Previous Version | Text Only | Print | Product List | Glossary On
Versions: 1 2 3 4 5 6 7 8 9 10 11 12
000
FTUS42 KTBW 042334
TAFPGD
TAF
KPGD 042334Z 0500/0524 14005KT P6SM SCT050 SCT250
     FM050900 14005KT 5SM BR SCT020 BKN100
     FM051500 15008KT P6SM SCT060 BKN100
     FM052000 19011KT P6SM VCSH BKN040 OVC100=

USA.gov is the U.S. government's official web portal to all federal, state and local government web resources and services.